Country
Station

 

Weather  for  Parana Aerodrome  -  Argentina    Argentina

  
12 °C (54 °F)
    
 
 

Current METAR for Parana Aerodrome is :

SAAP 111314Z 16010KT 9000 OVC008 12/12 Q1019

 

This is a report for Parana Aerodrome - Argentina.
 
The report was made 165 hours and 59 minutes ago, at 13:14 UTC .
The wind was blowing at a speed of 5.1 meters per second (11.5 miles per hour) from south/southeast (160°).
 
The temperature was 12 °C (54 °F), with a dew-point at 12 °C (54 °F).
The atmospheric pressure was 1019 hPa (30.09 inHg).
The relative humidity was 100.0%.
 
The sky was overcast from a height of 244 meter (800 feet)
 
The overall visibility was 9.0 kilometers (5.6 miles).
 

 
 
 
 

Country :   A   B   C   D   E   F   G   H   I   J   K   L   M   N   O   P   Q   R   S   T   U   V   W   Y   Z

 

Site Info  |  Disclaimer  |  Credits  |  Privacy
Contact us  |  Add to favorites
© 2013-2019 METARs - All rights reserved